Misty Dawn — WDC8124 — position and weather

sailwx.info

Track history (hours):
 
Tides and Currents Weather Stations Pressure Air Temp Water Temp Dewpoint Dewpoint Depression Visibility Wind Speed Wind Dir Waves Ship Positions

Misty Dawn

Owner: Katahdin, Inc., Seattle, WA. More information available from US FCC via Universal Licensing System and Coast Guard Vessel Documentation Center.

Last reported at 2017-Jan-18 12:08 UTC. Time now 2017-Feb-25 20:38 UTC.
Position N 49°11' W 126°59'.
Warning: this ship's position is 38 days out of date.

Length 22 m; draft 25.5 m.

MMSI: 367082010.

Date/timePositionNaut miles runAvg speedWind from/ knotsBaromVisibWave heightAir tempDewpointWater temp
2017-Jan-18 12:08N 49°11' W 126°59'6 9.8
2017-Jan-18 11:29N 49°09' W 126°50'9 9.7
2017-Jan-18 10:32N 49°04' W 126°38'9 9.6
2017-Jan-18 09:34N 49°01' W 126°25'10 9.7
2017-Jan-18 08:33N 48°56' W 126°12'10 9.9
2017-Jan-18 07:33N 48°52' W 125°58'9 8.7
2017-Jan-18 06:33N 48°48' W 125°47'9 9.1
2017-Jan-18 05:33N 48°44' W 125°34'9 9.3
2017-Jan-18 04:33N 48°39' W 125°22'10 9.6
2017-Jan-18 03:33N 48°35' W 125°09'13 9.1
2017-Jan-18 02:06N 48°29' W 124°51'5 8.3
2017-Jan-18 01:32N 48°27' W 124°44'5 5.1
2017-Jan-18 00:33N 48°25' W 124°38'3 3.0
2017-Jan-17 23:33N 48°22' W 124°37'0 0.0
2017-Jan-17 22:33N 48°22' W 124°37'0 0.0
2017-Jan-17 21:33N 48°22' W 124°37'0 0.0
2017-Jan-17 20:33N 48°22' W 124°37'0 0.0
2017-Jan-17 19:33N 48°22' W 124°37'0 0.0
2017-Jan-17 18:33N 48°22' W 124°37'0 0.0
2017-Jan-17 17:33N 48°22' W 124°37'0 0.0
2017-Jan-17 16:33N 48°22' W 124°37'0 0.0
2017-Jan-17 15:33N 48°22' W 124°37'4 4.0
2017-Jan-17 14:33N 48°22' W 124°31'9 8.7
2017-Jan-17 13:33N 48°18' W 124°19'9 9.2
2017-Jan-17 12:33N 48°14' W 124°06'9 8.8
2017-Jan-17 11:32N 48°11' W 123°54'9 9.4
2017-Jan-17 10:33N 48°11' W 123°40'1010.5
2017-Jan-17 09:33N 48°11' W 123°24'1111.0
2017-Jan-17 08:32N 48°11' W 123°07'1010.5
2017-Jan-17 07:32N 48°10' W 122°52'1111.2
2017-Jan-17 06:33N 48°03' W 122°39'1211.9
2017-Jan-17 05:33N 47°54' W 122°28'1110.8
2017-Jan-17 04:33N 47°44' W 122°25'4 3.7
2017-Jan-17 03:33N 47°40' W 122°24'0 0.3
2017-Jan-17 02:33N 47°40' W 122°23'0 0.0
2017-Jan-17 01:33N 47°40' W 122°23'0 0.0
2017-Jan-17 00:33N 47°40' W 122°23'0 0.0
2017-Jan-16 23:33N 47°40' W 122°23'0 0.0
2017-Jan-16 22:33N 47°40' W 122°23'0 0.2
2017-Jan-16 21:33N 47°40' W 122°23'0 0.4
2017-Jan-16 20:33N 47°40' W 122°23'0 0.0
2017-Jan-16 19:33N 47°40' W 122°23'0 0.0
2017-Jan-16 18:33N 47°40' W 122°23'0 0.0
2017-Jan-16 17:33N 47°40' W 122°23'0 0.1
2017-Jan-16 16:33N 47°40' W 122°23'0 0.0
2017-Jan-16 15:33N 47°40' W 122°23'0 0.0
2017-Jan-16 14:33N 47°40' W 122°23'0 0.0
2017-Jan-16 13:33N 47°40' W 122°23'0 0.0
2017-Jan-16 12:33N 47°40' W 122°23'0 0.0
2017-Jan-16 11:33N 47°40' W 122°23'0 0.0
2017-Jan-16 10:33N 47°40' W 122°23'0 0.0
2017-Jan-16 09:33N 47°40' W 122°23'0 0.0
2017-Jan-16 08:33N 47°40' W 122°23'0 0.0
2017-Jan-16 07:33N 47°40' W 122°23'0 0.0
2017-Jan-16 06:33N 47°40' W 122°23'0 0.0
2017-Jan-16 05:33N 47°40' W 122°23'0 0.0
2017-Jan-16 04:33N 47°40' W 122°23'0 0.0
2017-Jan-16 03:33N 47°40' W 122°23'0 0.0
2017-Jan-16 02:33N 47°40' W 122°23'0 0.0
2017-Jan-16 01:33N 47°40' W 122°23'0 0.0
2017-Jan-16 00:33N 47°40' W 122°23'0 0.0
2017-Jan-15 23:33N 47°40' W 122°23'0 0.0
2017-Jan-15 22:33N 47°40' W 122°23'0 0.0
2017-Jan-15 21:33N 47°40' W 122°23'0 0.0
2017-Jan-15 20:33N 47°40' W 122°23'0 0.0
2017-Jan-15 19:33N 47°40' W 122°23'0 0.0
2017-Jan-15 18:33N 47°40' W 122°23'0 0.0
2017-Jan-15 17:33N 47°40' W 122°23'0 0.0
2017-Jan-15 16:33N 47°40' W 122°23'0 0.0
2017-Jan-15 15:33N 47°40' W 122°23'0 0.0
2017-Jan-15 14:33N 47°40' W 122°23'0 0.0
2017-Jan-15 13:33N 47°40' W 122°23'0 0.0
2017-Jan-15 12:33N 47°40' W 122°23'0 0.0
2017-Jan-15 11:33N 47°40' W 122°23'0 0.0
2017-Jan-15 10:33N 47°40' W 122°23'0 0.0
2017-Jan-15 09:33N 47°40' W 122°23'0 0.0
2017-Jan-15 08:33N 47°40' W 122°23'0 0.0
2017-Jan-15 07:33N 47°40' W 122°23'0 0.0
2017-Jan-15 06:33N 47°40' W 122°23'0 0.0
2017-Jan-15 05:33N 47°40' W 122°23'0 0.0
2017-Jan-15 04:33N 47°40' W 122°23'0 0.0
2017-Jan-15 03:33N 47°40' W 122°23'0 0.0
2017-Jan-15 02:33N 47°40' W 122°23'0 0.0
2017-Jan-15 01:33N 47°40' W 122°23'0 0.0
2017-Jan-15 00:33N 47°40' W 122°23'0 0.0
2017-Jan-14 23:33N 47°40' W 122°23'0 0.0
2017-Jan-14 22:33N 47°40' W 122°23'0 0.0
2017-Jan-14 21:33N 47°40' W 122°23'0 0.0
2017-Jan-14 20:33N 47°40' W 122°23'0 0.0
2017-Jan-14 19:33N 47°40' W 122°23'1 1.3
2017-Jan-14 18:33N 47°40' W 122°24'4 3.6
2017-Jan-14 17:33N 47°44' W 122°25'7 6.7
2017-Jan-14 16:33N 47°51' W 122°26'9 8.9
2017-Jan-14 15:33N 47°42' W 122°25'2 2.1
2017-Jan-14 14:33N 47°40' W 122°23'0 0.5
2017-Jan-14 13:33N 47°40' W 122°23'0 0.0
2017-Jan-14 12:33N 47°40' W 122°23'0 0.0
2017-Jan-14 11:33N 47°40' W 122°23'0 0.0
2017-Jan-14 10:33N 47°40' W 122°23'0 0.0
2017-Jan-14 09:33N 47°40' W 122°23'0 0.0
2017-Jan-14 08:33N 47°40' W 122°23'0 0.0
2017-Jan-14 07:33N 47°40' W 122°23'0 0.0
2017-Jan-14 06:33N 47°40' W 122°23'0 0.0
2017-Jan-14 05:33N 47°40' W 122°23'0 0.0
2017-Jan-14 04:33N 47°40' W 122°23'0 0.0
2017-Jan-14 03:33N 47°40' W 122°23'0 0.0
2017-Jan-13 23:33N 47°40' W 122°23'0 0.0
2017-Jan-13 22:33N 47°40' W 122°23'0 0.0
2017-Jan-13 21:33N 47°40' W 122°23'0 0.0
2017-Jan-13 20:33N 47°40' W 122°23'0 0.0
2017-Jan-13 19:33N 47°40' W 122°23'0 0.0
2017-Jan-13 18:34N 47°40' W 122°23'  
Track history (hours):
 
Tides and Currents Weather Stations Pressure Air Temp Water Temp Dewpoint Dewpoint Depression Visibility Wind Speed Wind Dir Waves Ship Positions

Misty Dawn

Owner: Katahdin, Inc., Seattle, WA. More information available from US FCC via Universal Licensing System and Coast Guard Vessel Documentation Center.

Last reported at 2017-Jan-18 12:08 UTC. Time now 2017-Feb-25 20:38 UTC.
Position N 49°11' W 126°59'.
Warning: this ship's position is 38 days out of date.

Length 22 m; draft 25.5 m.

MMSI: 367082010.

Date/timePositionNaut miles runAvg speedWind from/ knotsBaromVisibWave heightAir tempDewpointWater temp
2017-Jan-18 12:08N 49°11' W 126°59'6 9.8
2017-Jan-18 11:29N 49°09' W 126°50'9 9.7
2017-Jan-18 10:32N 49°04' W 126°38'9 9.6
2017-Jan-18 09:34N 49°01' W 126°25'10 9.7
2017-Jan-18 08:33N 48°56' W 126°12'10 9.9
2017-Jan-18 07:33N 48°52' W 125°58'9 8.7
2017-Jan-18 06:33N 48°48' W 125°47'9 9.1
2017-Jan-18 05:33N 48°44' W 125°34'9 9.3
2017-Jan-18 04:33N 48°39' W 125°22'10 9.6
2017-Jan-18 03:33N 48°35' W 125°09'13 9.1
2017-Jan-18 02:06N 48°29' W 124°51'5 8.3
2017-Jan-18 01:32N 48°27' W 124°44'5 5.1
2017-Jan-18 00:33N 48°25' W 124°38'3 3.0
2017-Jan-17 23:33N 48°22' W 124°37'0 0.0
2017-Jan-17 22:33N 48°22' W 124°37'0 0.0
2017-Jan-17 21:33N 48°22' W 124°37'0 0.0
2017-Jan-17 20:33N 48°22' W 124°37'0 0.0
2017-Jan-17 19:33N 48°22' W 124°37'0 0.0
2017-Jan-17 18:33N 48°22' W 124°37'0 0.0
2017-Jan-17 17:33N 48°22' W 124°37'0 0.0
2017-Jan-17 16:33N 48°22' W 124°37'0 0.0
2017-Jan-17 15:33N 48°22' W 124°37'4 4.0
2017-Jan-17 14:33N 48°22' W 124°31'9 8.7
2017-Jan-17 13:33N 48°18' W 124°19'9 9.2
2017-Jan-17 12:33N 48°14' W 124°06'9 8.8
2017-Jan-17 11:32N 48°11' W 123°54'9 9.4
2017-Jan-17 10:33N 48°11' W 123°40'1010.5
2017-Jan-17 09:33N 48°11' W 123°24'1111.0
2017-Jan-17 08:32N 48°11' W 123°07'1010.5
2017-Jan-17 07:32N 48°10' W 122°52'1111.2
2017-Jan-17 06:33N 48°03' W 122°39'1211.9
2017-Jan-17 05:33N 47°54' W 122°28'1110.8
2017-Jan-17 04:33N 47°44' W 122°25'4 3.7
2017-Jan-17 03:33N 47°40' W 122°24'0 0.3
2017-Jan-17 02:33N 47°40' W 122°23'0 0.0
2017-Jan-17 01:33N 47°40' W 122°23'0 0.0
2017-Jan-17 00:33N 47°40' W 122°23'0 0.0
2017-Jan-16 23:33N 47°40' W 122°23'0 0.0
2017-Jan-16 22:33N 47°40' W 122°23'0 0.2
2017-Jan-16 21:33N 47°40' W 122°23'0 0.4
2017-Jan-16 20:33N 47°40' W 122°23'0 0.0
2017-Jan-16 19:33N 47°40' W 122°23'0 0.0
2017-Jan-16 18:33N 47°40' W 122°23'0 0.0
2017-Jan-16 17:33N 47°40' W 122°23'0 0.1
2017-Jan-16 16:33N 47°40' W 122°23'0 0.0
2017-Jan-16 15:33N 47°40' W 122°23'0 0.0
2017-Jan-16 14:33N 47°40' W 122°23'0 0.0
2017-Jan-16 13:33N 47°40' W 122°23'0 0.0
2017-Jan-16 12:33N 47°40' W 122°23'0 0.0
2017-Jan-16 11:33N 47°40' W 122°23'0 0.0
2017-Jan-16 10:33N 47°40' W 122°23'0 0.0
2017-Jan-16 09:33N 47°40' W 122°23'0 0.0
2017-Jan-16 08:33N 47°40' W 122°23'0 0.0
2017-Jan-16 07:33N 47°40' W 122°23'0 0.0
2017-Jan-16 06:33N 47°40' W 122°23'0 0.0
2017-Jan-16 05:33N 47°40' W 122°23'0 0.0
2017-Jan-16 04:33N 47°40' W 122°23'0 0.0
2017-Jan-16 03:33N 47°40' W 122°23'0 0.0
2017-Jan-16 02:33N 47°40' W 122°23'0 0.0
2017-Jan-16 01:33N 47°40' W 122°23'0 0.0
2017-Jan-16 00:33N 47°40' W 122°23'0 0.0
2017-Jan-15 23:33N 47°40' W 122°23'0 0.0
2017-Jan-15 22:33N 47°40' W 122°23'0 0.0
2017-Jan-15 21:33N 47°40' W 122°23'0 0.0
2017-Jan-15 20:33N 47°40' W 122°23'0 0.0
2017-Jan-15 19:33N 47°40' W 122°23'0 0.0
2017-Jan-15 18:33N 47°40' W 122°23'0 0.0
2017-Jan-15 17:33N 47°40' W 122°23'0 0.0
2017-Jan-15 16:33N 47°40' W 122°23'0 0.0
2017-Jan-15 15:33N 47°40' W 122°23'0 0.0
2017-Jan-15 14:33N 47°40' W 122°23'0 0.0
2017-Jan-15 13:33N 47°40' W 122°23'0 0.0
2017-Jan-15 12:33N 47°40' W 122°23'0 0.0
2017-Jan-15 11:33N 47°40' W 122°23'0 0.0
2017-Jan-15 10:33N 47°40' W 122°23'0 0.0
2017-Jan-15 09:33N 47°40' W 122°23'0 0.0
2017-Jan-15 08:33N 47°40' W 122°23'0 0.0
2017-Jan-15 07:33N 47°40' W 122°23'0 0.0
2017-Jan-15 06:33N 47°40' W 122°23'0 0.0
2017-Jan-15 05:33N 47°40' W 122°23'0 0.0
2017-Jan-15 04:33N 47°40' W 122°23'0 0.0
2017-Jan-15 03:33N 47°40' W 122°23'0 0.0
2017-Jan-15 02:33N 47°40' W 122°23'0 0.0
2017-Jan-15 01:33N 47°40' W 122°23'0 0.0
2017-Jan-15 00:33N 47°40' W 122°23'0 0.0
2017-Jan-14 23:33N 47°40' W 122°23'0 0.0
2017-Jan-14 22:33N 47°40' W 122°23'0 0.0
2017-Jan-14 21:33N 47°40' W 122°23'0 0.0
2017-Jan-14 20:33N 47°40' W 122°23'0 0.0
2017-Jan-14 19:33N 47°40' W 122°23'1 1.3
2017-Jan-14 18:33N 47°40' W 122°24'4 3.6
2017-Jan-14 17:33N 47°44' W 122°25'7 6.7
2017-Jan-14 16:33N 47°51' W 122°26'9 8.9
2017-Jan-14 15:33N 47°42' W 122°25'2 2.1
2017-Jan-14 14:33N 47°40' W 122°23'0 0.5
2017-Jan-14 13:33N 47°40' W 122°23'0 0.0
2017-Jan-14 12:33N 47°40' W 122°23'0 0.0
2017-Jan-14 11:33N 47°40' W 122°23'0 0.0
2017-Jan-14 10:33N 47°40' W 122°23'0 0.0
2017-Jan-14 09:33N 47°40' W 122°23'0 0.0
2017-Jan-14 08:33N 47°40' W 122°23'0 0.0
2017-Jan-14 07:33N 47°40' W 122°23'0 0.0
2017-Jan-14 06:33N 47°40' W 122°23'0 0.0
2017-Jan-14 05:33N 47°40' W 122°23'0 0.0
2017-Jan-14 04:33N 47°40' W 122°23'0 0.0
2017-Jan-14 03:33N 47°40' W 122°23'0 0.0
2017-Jan-13 23:33N 47°40' W 122°23'0 0.0
2017-Jan-13 22:33N 47°40' W 122°23'0 0.0
2017-Jan-13 21:33N 47°40' W 122°23'0 0.0
2017-Jan-13 20:33N 47°40' W 122°23'0 0.0
2017-Jan-13 19:33N 47°40' W 122°23'0 0.0
2017-Jan-13 18:34N 47°40' W 122°23'  

Dump ship's entire track history